Time;durP1;ratioP1;P1;durP2;ratioP2;P2;SDS_P1;SDS_P2;PMS_P1;PMS_P2;Temp;Humidity;BMP_temperature;BMP_pressure;BME280_temperature;BME280_humidity;BME280_pressure;Samples;Min_cycle;Max_cycle;Signal;HPM_P1;HPM_P2
2021/07/24 00:00:11;;;;;;;31.60;15.83;;;;;;;15.74;66.46;100260.08;2208300;79;31003;-61
2021/07/24 00:03:15;;;;;;;24.27;16.73;;;;;;;15.72;66.50;100258.48;2208024;79;28200;-61
2021/07/24 00:06:17;;;;;;;26.33;17.07;;;;;;;15.68;66.57;100251.06;2159830;79;30155;-61
2021/07/24 00:09:18;;;;;;;29.12;17.35;;;;;;;15.65;66.77;100247.22;2156471;82;27798;-62
2021/07/24 00:12:21;;;;;;;23.87;16.00;;;;;;;15.61;66.80;100243.05;2156126;82;29826;-62
2021/07/24 00:15:23;;;;;;;26.02;17.20;;;;;;;15.57;66.81;100238.83;2182445;80;32220;-61
2021/07/24 00:18:24;;;;;;;24.72;16.60;;;;;;;15.54;66.91;100239.92;2135583;83;33646;-61
2021/07/24 00:21:26;;;;;;;24.05;16.32;;;;;;;15.49;67.02;100240.22;2175460;81;29404;-62
2021/07/24 00:24:28;;;;;;;28.73;16.25;;;;;;;15.46;67.10;100242.29;2135428;83;27718;-60
2021/07/24 00:27:30;;;;;;;25.02;17.23;;;;;;;15.41;67.22;100245.33;2184075;81;29841;-60
2021/07/24 00:30:32;;;;;;;30.55;17.30;;;;;;;15.39;67.40;100240.52;2174062;81;30820;-60
2021/07/24 00:33:35;;;;;;;26.57;18.32;;;;;;;15.38;67.51;100245.53;2184836;79;34113;-60
2021/07/24 00:36:37;;;;;;;28.42;18.48;;;;;;;15.34;68.13;100246.25;2147404;82;29389;-61
2021/07/24 00:39:39;;;;;;;28.02;18.12;;;;;;;15.30;67.96;100247.42;2147518;82;27771;-60
2021/07/24 00:42:48;;;;;;;28.40;17.80;;;;;;;15.29;68.00;100252.44;2147688;82;29056;-60
2021/07/24 00:45:48;;;;;;;27.13;18.62;;;;;;;15.27;68.00;100245.44;2206980;79;31094;-60
2021/07/24 00:48:51;;;;;;;30.43;19.23;;;;;;;15.25;68.17;100237.93;2231002;79;32982;-61
2021/07/24 00:51:55;;;;;;;28.02;18.35;;;;;;;15.23;68.50;100231.77;2231038;79;29326;-60
2021/07/24 00:54:58;;;;;;;25.65;17.95;;;;;;;15.20;68.68;100227.47;2208145;79;27670;-60
2021/07/24 00:58:27;;;;;;;26.60;16.60;;;;;;;15.21;68.57;100232.36;2173952;81;29031;-60
2021/07/24 01:01:29;;;;;;;30.70;18.07;;;;;;;15.19;68.66;100237.37;2184172;81;31572;-61
2021/07/24 01:04:31;;;;;;;27.37;18.42;;;;;;;15.18;68.73;100226.70;2174076;81;33836;-60
2021/07/24 01:07:40;;;;;;;31.25;18.17;;;;;;;15.16;68.78;100233.55;2191196;81;30117;-60
2021/07/24 01:10:42;;;;;;;28.92;17.23;;;;;;;15.15;68.78;100222.87;2191350;80;27501;-61
2021/07/24 01:13:43;;;;;;;27.98;18.67;;;;;;;15.12;68.79;100228.01;2190861;81;29980;-61
2021/07/24 01:16:45;;;;;;;33.30;18.07;;;;;;;15.10;68.83;100227.72;2153171;80;31400;-61
2021/07/24 01:19:47;;;;;;;27.75;17.07;;;;;;;15.08;69.08;100227.84;2148479;82;33682;-61
2021/07/24 01:22:49;;;;;;;28.27;17.62;;;;;;;15.05;68.92;100232.09;2148711;82;30047;-61
2021/07/24 01:25:53;;;;;;;26.80;18.27;;;;;;;15.04;69.01;100230.36;2105024;82;28126;-61
2021/07/24 01:28:56;;;;;;;30.57;18.02;;;;;;;15.06;69.31;100235.67;2088851;84;29531;-61
2021/07/24 01:31:58;;;;;;;31.45;19.52;;;;;;;15.08;69.39;100237.75;2088701;85;31037;-62
2021/07/24 01:35:00;;;;;;;26.60;17.30;;;;;;;15.09;69.60;100233.61;2107790;82;34185;-60
2021/07/24 01:38:03;;;;;;;28.32;18.12;;;;;;;15.08;69.87;100233.23;2174049;81;29697;-61
2021/07/24 01:41:10;;;;;;;30.35;18.23;;;;;;;15.11;69.84;100230.33;2153289;81;27668;-61
2021/07/24 01:44:12;;;;;;;27.22;17.75;;;;;;;15.09;69.81;100229.56;2170028;81;29859;-61
2021/07/24 01:47:14;;;;;;;26.95;17.07;;;;;;;15.09;69.96;100228.22;2115955;84;31605;-61
2021/07/24 01:53:38;;;;;;;26.48;16.80;;;;;;;15.10;69.91;100229.06;2115594;84;30499;-62
2021/07/24 01:56:40;;;;;;;29.37;18.12;;;;;;;15.09;69.83;100225.52;2086225;84;27747;-61
2021/07/24 01:59:44;;;;;;;28.17;18.40;;;;;;;15.08;69.87;100222.44;2154025;82;30249;-61
2021/07/24 02:02:54;;;;;;;27.00;18.57;;;;;;;15.08;70.05;100220.20;2153686;82;32266;-61
2021/07/24 02:05:56;;;;;;;25.55;17.02;;;;;;;15.03;70.03;100213.33;2130429;82;33324;-61
2021/07/24 02:08:58;;;;;;;30.60;18.48;;;;;;;15.02;69.99;100211.59;2147866;82;29402;-62
2021/07/24 02:12:00;;;;;;;30.10;17.90;;;;;;;15.02;70.17;100212.06;2147880;82;27729;-61
2021/07/24 02:15:03;;;;;;;31.65;17.67;;;;;;;15.01;70.10;100208.52;2108920;82;29942;-62
2021/07/24 02:18:05;;;;;;;24.67;16.77;;;;;;;15.03;70.22;100215.14;2093188;85;31978;-62
2021/07/24 02:21:08;;;;;;;27.50;17.17;;;;;;;15.01;70.17;100213.03;2116036;83;35147;-62
2021/07/24 02:24:10;;;;;;;30.40;18.30;;;;;;;15.01;70.23;100217.08;2117595;82;29317;-62
2021/07/24 02:27:12;;;;;;;23.77;15.72;;;;;;;15.00;70.21;100213.53;2116124;83;27679;-61
2021/07/24 02:30:14;;;;;;;25.45;17.07;;;;;;;14.97;70.13;100211.55;2154417;82;29815;-62
2021/07/24 02:33:17;;;;;;;25.90;17.57;;;;;;;14.96;70.10;100201.22;2154527;82;31971;-62
2021/07/24 02:36:19;;;;;;;26.00;16.93;;;;;;;14.96;70.08;100213.86;2157680;82;33150;-62
2021/07/24 02:39:21;;;;;;;28.60;17.80;;;;;;;14.95;70.13;100210.78;2159116;82;29691;-62
2021/07/24 02:42:23;;;;;;;27.37;17.62;;;;;;;14.92;70.22;100206.44;2158796;82;27796;-62
2021/07/24 02:45:25;;;;;;;25.43;17.42;;;;;;;14.91;70.30;100207.41;2157041;82;28653;-62
2021/07/24 02:48:28;;;;;;;28.23;17.98;;;;;;;14.91;70.36;100203.36;2154103;82;31873;-62
2021/07/24 02:51:30;;;;;;;23.42;17.12;;;;;;;14.91;70.41;100205.22;2154332;82;34134;-61
2021/07/24 02:54:32;;;;;;;35.33;18.48;;;;;;;14.88;70.31;100212.55;2154059;82;30251;-62
2021/07/24 02:57:34;;;;;;;27.87;16.50;;;;;;;14.86;70.38;100205.54;2158705;82;27689;-62
2021/07/24 03:00:36;;;;;;;26.68;18.35;;;;;;;14.86;70.49;100205.54;2158996;82;29047;-62
2021/07/24 03:03:38;;;;;;;29.60;18.62;;;;;;;14.84;70.66;100211.02;2158979;82;31482;-61
2021/07/24 03:06:40;;;;;;;26.37;18.52;;;;;;;14.83;70.67;100207.09;2158058;82;34170;-62
2021/07/24 03:09:42;;;;;;;28.50;18.30;;;;;;;14.82;70.81;100212.95;2158888;82;29694;-62
2021/07/24 03:12:44;;;;;;;32.65;19.12;;;;;;;14.80;70.84;100209.53;2159065;82;27701;-61
2021/07/24 03:15:46;;;;;;;27.17;17.95;;;;;;;14.80;70.73;100212.23;2157937;82;28826;-62
2021/07/24 03:18:49;;;;;;;25.90;16.90;;;;;;;14.82;70.76;100208.06;2154070;82;32283;-61
2021/07/24 03:21:51;;;;;;;26.65;16.77;;;;;;;14.83;70.75;100203.05;2163458;82;33357;-61
2021/07/24 03:24:57;;;;;;;25.90;16.90;;;;;;;14.86;70.77;100210.44;2153210;82;29121;-62
2021/07/24 03:27:59;;;;;;;24.98;16.57;;;;;;;14.87;70.77;100204.57;2139026;83;27702;-61
2021/07/24 03:31:01;;;;;;;26.25;17.17;;;;;;;14.90;70.80;100209.73;2184059;81;29718;-62
2021/07/24 03:34:03;;;;;;;24.00;16.50;;;;;;;14.94;70.74;100203.16;2183999;81;32067;-61
2021/07/24 03:37:05;;;;;;;26.30;16.67;;;;;;;15.01;70.73;100208.52;2168477;81;34084;-61
2021/07/24 03:40:08;;;;;;;24.40;16.37;;;;;;;15.10;70.74;100212.88;2166702;82;30535;-61
2021/07/24 03:43:10;;;;;;;25.05;16.97;;;;;;;15.18;70.68;100211.86;2167051;82;27651;-62
2021/07/24 03:46:18;;;;;;;23.20;17.12;;;;;;;15.27;70.65;100212.55;2147351;82;29878;-62
2021/07/24 03:49:21;;;;;;;26.87;17.57;;;;;;;15.38;70.67;100215.84;2126152;83;31032;-61
2021/07/24 03:52:23;;;;;;;27.27;17.75;;;;;;;15.50;70.56;100216.30;2116070;84;33623;-60
2021/07/24 03:55:25;;;;;;;27.32;17.27;;;;;;;15.62;70.58;100215.91;2138456;82;30427;-60
2021/07/24 03:58:27;;;;;;;28.17;17.92;;;;;;;15.71;70.35;100217.08;2167757;82;27616;-61
2021/07/24 04:01:29;;;;;;;28.47;17.95;;;;;;;15.81;70.25;100207.83;2167481;82;29514;-61
2021/07/24 04:04:32;;;;;;;30.37;18.98;;;;;;;15.91;70.08;100210.25;2167267;82;32106;-61
2021/07/24 04:07:35;;;;;;;30.35;18.73;;;;;;;16.03;69.91;100213.89;2099264;83;34073;-61
2021/07/24 04:10:40;;;;;;;30.45;17.82;;;;;;;16.15;69.89;100211.23;2125609;83;29345;-61
2021/07/24 04:13:44;;;;;;;27.15;17.12;;;;;;;16.28;69.82;100206.66;2126512;83;27666;-61
2021/07/24 04:16:46;;;;;;;32.20;18.60;;;;;;;16.42;69.52;100205.60;2144054;81;29732;-61
2021/07/24 04:19:51;;;;;;;29.23;18.98;;;;;;;16.51;69.31;100213.03;2197033;81;31169;-61
2021/07/24 04:22:56;;;;;;;30.12;17.87;;;;;;;16.62;69.16;100208.16;2126145;83;34213;-61
2021/07/24 04:25:59;;;;;;;28.42;18.48;;;;;;;16.72;68.93;100209.64;2197753;81;30084;-61
2021/07/24 04:29:06;;;;;;;28.83;19.27;;;;;;;16.83;68.79;100211.52;2125761;83;27735;-61
2021/07/24 04:32:07;;;;;;;30.68;18.15;;;;;;;16.97;68.71;100205.92;2197034;80;33512;-61
2021/07/24 04:35:10;;;;;;;29.67;17.57;;;;;;;17.15;68.53;100200.92;2175183;81;31029;-61
2021/07/24 04:38:14;;;;;;;28.15;18.52;;;;;;;17.36;68.46;100197.50;2174866;80;33139;-61
2021/07/24 04:41:18;;;;;;;25.85;17.55;;;;;;;17.49;68.02;100198.70;2174089;81;29330;-61
2021/07/24 04:44:21;;;;;;;29.55;16.93;;;;;;;17.60;67.89;100197.84;2173820;81;27769;-61
2021/07/24 04:47:23;;;;;;;24.15;17.82;;;;;;;17.75;67.45;100191.17;2175417;80;29311;-62
2021/07/24 04:50:26;;;;;;;22.00;16.45;;;;;;;18.05;67.66;100189.66;2191989;80;31069;-61
2021/07/24 04:53:28;;;;;;;28.02;17.95;;;;;;;18.81;67.36;100191.43;2217650;80;33162;-61
2021/07/24 04:56:35;;;;;;;27.98;16.45;;;;;;;19.61;66.69;100189.50;2217363;80;30557;-61
2021/07/24 04:59:46;;;;;;;27.62;15.85;;;;;;;20.47;65.56;100181.30;2189497;80;27713;-61
2021/07/24 05:02:45;;;;;;;24.55;16.85;;;;;;;21.33;65.00;100182.31;2173371;81;28652;-61
2021/07/24 05:05:49;;;;;;;22.48;15.90;;;;;;;22.18;63.77;100187.61;2174484;81;32822;-61
2021/07/24 05:08:51;;;;;;;25.85;17.77;;;;;;;22.94;61.90;100187.29;2174486;81;32996;-61
2021/07/24 05:11:54;;;;;;;28.62;18.75;;;;;;;23.48;60.11;100183.02;2211592;80;30195;-61
2021/07/24 05:14:56;;;;;;;23.92;15.38;;;;;;;23.92;59.76;100177.89;2217457;80;27702;-61
2021/07/24 05:17:59;;;;;;;30.57;16.20;;;;;;;24.06;57.49;100181.38;2185536;80;29531;-61
2021/07/24 05:21:02;;;;;;;24.87;16.55;;;;;;;23.93;57.61;100183.19;2173045;81;31762;-63
2021/07/24 05:24:04;;;;;;;25.82;15.10;;;;;;;24.29;57.35;100187.59;2175607;81;35080;-65
2021/07/24 05:27:08;;;;;;;21.85;15.13;;;;;;;24.73;56.67;100182.34;2175900;81;29504;-66
2021/07/24 05:30:26;;;;;;;23.73;15.28;;;;;;;25.33;56.29;100189.24;2173475;81;27825;-65
2021/07/24 05:33:34;;;;;;;23.75;15.23;;;;;;;25.90;55.37;100180.98;2163539;81;29511;-65
2021/07/24 05:36:39;;;;;;;18.98;14.43;;;;;;;26.38;54.19;100191.39;2201136;80;31009;-65
2021/07/24 05:39:44;;;;;;;22.27;14.55;;;;;;;26.88;53.44;100192.88;2137040;81;33739;-65
2021/07/24 05:42:50;;;;;;;25.25;14.78;;;;;;;27.24;52.29;100187.53;2201267;80;29362;-66
2021/07/24 05:45:52;;;;;;;18.70;14.47;;;;;;;27.41;50.87;100185.97;2134338;82;27774;-65
2021/07/24 05:49:02;;;;;;;20.80;14.50;;;;;;;27.58;50.44;100192.17;2200745;80;28655;-64
2021/07/24 05:52:11;;;;;;;17.90;14.05;;;;;;;27.79;49.34;100190.02;2080498;82;31766;-65
2021/07/24 05:55:12;;;;;;;19.65;14.45;;;;;;;27.97;49.17;100186.83;2116657;84;33624;-64
2021/07/24 05:58:14;;;;;;;16.05;12.50;;;;;;;28.13;48.27;100186.33;2111832;84;29328;-65
2021/07/24 06:01:15;;;;;;;15.68;13.88;;;;;;;28.23;45.55;100184.09;2118844;83;27729;-65
2021/07/24 06:04:18;;;;;;;18.05;13.88;;;;;;;28.38;47.50;100196.42;2135300;83;44269;-61
2021/07/24 06:07:21;;;;;;;16.80;14.38;;;;;;;28.78;46.90;100190.48;2135171;83;31249;-62
2021/07/24 06:10:24;;;;;;;16.85;13.28;;;;;;;29.08;46.35;100186.16;2124181;83;33138;-61
2021/07/24 06:13:31;;;;;;;17.73;13.58;;;;;;;29.40;46.28;100189.36;2155128;82;29386;-61
2021/07/24 06:16:38;;;;;;;18.42;13.88;;;;;;;29.86;45.45;100182.38;2154831;81;28170;-62
2021/07/24 06:19:41;;;;;;;18.90;13.13;;;;;;;30.16;44.23;100183.45;2154566;82;28663;-61
2021/07/24 06:22:44;;;;;;;19.37;13.40;;;;;;;30.49;44.05;100177.14;2154112;82;32222;-61
2021/07/24 06:25:47;;;;;;;19.73;12.88;;;;;;;30.82;43.48;100178.23;2142413;82;34095;-61
2021/07/24 06:28:49;;;;;;;16.50;12.60;;;;;;;31.22;42.60;100181.84;2158814;82;29364;-61
2021/07/24 06:31:51;;;;;;;16.05;11.80;;;;;;;31.54;41.33;100176.98;2158023;82;27687;-61
2021/07/24 06:34:53;;;;;;;19.23;11.20;;;;;;;31.89;41.33;100175.79;2157461;82;29958;-60
2021/07/24 06:37:55;;;;;;;17.07;12.03;;;;;;;32.31;40.42;100174.86;2158356;82;32250;-61
2021/07/24 06:40:58;;;;;;;13.78;10.82;;;;;;;32.72;40.11;100174.02;2158103;82;32971;-61
2021/07/24 06:44:00;;;;;;;13.15;11.75;;;;;;;33.00;38.53;100182.44;2158745;82;29558;-61
2021/07/24 06:47:02;;;;;;;13.22;11.08;;;;;;;33.21;38.20;100181.71;2158739;82;27670;-61
2021/07/24 06:50:07;;;;;;;17.25;12.25;;;;;;;33.55;37.42;100194.17;2158752;82;28675;-62
2021/07/24 06:53:11;;;;;;;14.25;10.98;;;;;;;33.93;37.65;100183.37;2157881;82;31892;-63
2021/07/24 06:56:13;;;;;;;14.65;10.78;;;;;;;34.46;37.43;100185.11;2156255;82;33009;-62
2021/07/24 06:59:16;;;;;;;14.83;11.45;;;;;;;34.81;36.01;100174.59;2153101;82;29269;-62
2021/07/24 07:02:21;;;;;;;14.05;10.43;;;;;;;35.03;35.65;100172.61;2153217;82;27827;-61
2021/07/24 07:05:32;;;;;;;16.55;11.03;;;;;;;35.29;34.90;100168.48;2153105;82;28599;-62
2021/07/24 07:08:40;;;;;;;11.68;9.75;;;;;;;35.48;34.54;100172.55;2153201;82;31018;-62
2021/07/24 07:11:44;;;;;;;11.93;10.72;;;;;;;35.69;34.57;100172.99;2152913;82;32977;-62
2021/07/24 07:14:53;;;;;;;14.13;10.68;;;;;;;36.03;34.07;100175.94;2152610;82;29292;-62
2021/07/24 07:17:57;;;;;;;15.68;11.05;;;;;;;36.34;33.96;100179.30;2151848;81;27773;-62
2021/07/24 07:21:06;;;;;;;14.70;11.18;;;;;;;36.53;33.49;100184.13;2152523;82;28720;-63
2021/07/24 07:24:17;;;;;;;13.62;11.40;;;;;;;36.84;33.16;100177.66;2152060;82;31190;-62
2021/07/24 07:27:22;;;;;;;16.05;10.53;;;;;;;37.20;32.90;100178.23;2152687;82;32873;-63
2021/07/24 07:30:29;;;;;;;14.60;11.05;;;;;;;37.44;32.34;100182.25;2152261;82;29405;-62
2021/07/24 07:33:33;;;;;;;12.47;9.88;;;;;;;37.55;31.66;100177.64;2152757;82;27770;-62
2021/07/24 07:36:39;;;;;;;13.13;9.25;;;;;;;37.62;30.73;100181.07;2151940;82;28777;-62
2021/07/24 07:39:46;;;;;;;15.55;10.10;;;;;;;37.56;31.03;100179.34;2152655;82;31019;-62
2021/07/24 07:42:50;;;;;;;12.15;10.85;;;;;;;37.73;30.84;100175.63;2152230;82;33024;-62
2021/07/24 07:45:55;;;;;;;12.07;9.55;;;;;;;37.77;30.21;100178.17;2129885;82;29340;-62
2021/07/24 07:49:01;;;;;;;16.77;12.20;;;;;;;37.85;30.12;100181.92;2152410;82;27828;-62
2021/07/24 07:52:11;;;;;;;14.15;9.88;;;;;;;37.83;30.03;100182.16;2152599;82;28617;-61
2021/07/24 07:55:18;;;;;;;10.28;8.95;;;;;;;38.00;29.67;100182.66;2152593;82;27950;-62
2021/07/24 07:58:28;;;;;;;11.57;8.60;;;;;;;37.94;29.31;100178.97;2152614;82;32917;-62
2021/07/24 08:01:32;;;;;;;15.20;10.38;;;;;;;38.12;29.26;100172.19;2152563;82;29361;-62
2021/07/24 08:04:37;;;;;;;12.47;10.43;;;;;;;38.17;28.17;100168.59;2152761;82;27921;-62
2021/07/24 08:07:42;;;;;;;12.68;8.60;;;;;;;38.07;27.98;100168.47;2151953;82;28705;-62
2021/07/24 08:10:45;;;;;;;12.95;9.28;;;;;;;37.91;27.36;100172.49;2152545;82;31065;-62
2021/07/24 08:13:54;;;;;;;9.80;8.80;;;;;;;37.80;27.68;100165.07;2153522;82;32982;-61
2021/07/24 08:17:02;;;;;;;14.68;9.08;;;;;;;37.50;26.41;100176.16;2151686;81;29531;-62
2021/07/24 08:20:09;;;;;;;10.93;8.23;;;;;;;37.17;26.44;100168.14;2152283;82;27791;-62
2021/07/24 08:23:17;;;;;;;10.60;8.25;;;;;;;36.78;26.68;100164.73;2153490;82;28661;-61
2021/07/24 08:26:27;;;;;;;11.25;8.40;;;;;;;36.79;27.23;100160.84;2152677;82;30997;-62
2021/07/24 08:29:31;;;;;;;10.70;8.30;;;;;;;37.10;26.82;100153.79;2152299;82;32937;-61
2021/07/24 08:32:38;;;;;;;9.95;8.05;;;;;;;37.30;26.64;100149.60;2152688;82;29307;-60
2021/07/24 08:35:48;;;;;;;13.68;9.80;;;;;;;37.33;26.21;100142.64;2153629;82;27708;-67
2021/07/24 08:38:52;;;;;;;10.82;9.40;;;;;;;37.30;25.99;100148.20;2154274;82;28696;-64
2021/07/24 08:41:57;;;;;;;9.78;8.68;;;;;;;37.32;26.72;100149.33;2152605;82;30999;-66
2021/07/24 08:45:02;;;;;;;9.53;7.62;;;;;;;37.49;25.60;100142.33;2152610;82;32959;-66
2021/07/24 08:48:07;;;;;;;11.08;7.47;;;;;;;37.48;25.30;100137.84;2154163;82;30309;-66
2021/07/24 08:51:18;;;;;;;8.98;8.13;;;;;;;37.29;24.60;100138.13;2152770;82;28034;-65
2021/07/24 08:54:23;;;;;;;9.30;8.30;;;;;;;37.11;24.09;100129.52;2152183;82;28704;-66
2021/07/24 08:57:34;;;;;;;10.45;7.30;;;;;;;36.79;25.16;100126.77;2152186;82;31083;-66
2021/07/24 09:00:43;;;;;;;11.70;8.45;;;;;;;37.00;25.45;100124.86;2152129;82;33003;-67
2021/07/24 09:03:48;;;;;;;13.48;8.75;;;;;;;36.97;25.20;100125.41;2152699;82;29347;-66
2021/07/24 09:07:00;;;;;;;10.00;8.43;;;;;;;36.73;25.30;100119.44;2152660;82;27819;-66
2021/07/24 09:10:11;;;;;;;8.93;8.13;;;;;;;36.47;25.46;100117.62;2152685;82;28637;-65
2021/07/24 09:13:16;;;;;;;9.58;8.60;;;;;;;36.38;24.86;100119.65;2152550;82;31019;-67
2021/07/24 09:16:22;;;;;;;12.25;8.78;;;;;;;36.07;24.72;100111.61;2153114;82;33006;-66
2021/07/24 09:19:29;;;;;;;11.48;9.03;;;;;;;35.92;26.13;100102.89;2136378;81;29187;-64
2021/07/24 09:22:38;;;;;;;10.50;8.10;;;;;;;35.52;24.70;100097.14;2161968;81;27916;-65
2021/07/24 09:25:43;;;;;;;8.73;7.83;;;;;;;35.08;25.29;100100.91;2170976;81;28712;-64
2021/07/24 09:28:54;;;;;;;11.60;8.38;;;;;;;34.79;24.82;100086.31;2170985;81;31015;-64
2021/07/24 09:32:00;;;;;;;11.30;8.05;;;;;;;34.60;25.66;100086.95;2165120;81;32968;-64
2021/07/24 09:35:07;;;;;;;10.25;7.90;;;;;;;34.56;25.63;100084.91;2137223;81;29687;-67
2021/07/24 09:38:28;;;;;;;7.92;7.12;;;;;;;34.23;26.02;100078.80;2162137;81;27796;-64
2021/07/24 09:41:33;;;;;;;8.85;8.00;;;;;;;34.26;26.91;100076.08;2170932;81;28708;-65
2021/07/24 09:44:38;;;;;;;12.18;8.25;;;;;;;34.20;26.56;100082.06;2154882;82;30979;-65
2021/07/24 09:47:43;;;;;;;11.60;7.72;;;;;;;34.05;26.13;100079.19;2132821;83;32991;-65
2021/07/24 09:50:49;;;;;;;12.55;8.18;;;;;;;33.78;26.16;100083.70;2170988;81;29315;-64
2021/07/24 09:53:57;;;;;;;9.98;7.58;;;;;;;33.33;26.15;100077.98;2171255;81;27849;-64
2021/07/24 09:57:03;;;;;;;8.83;7.92;;;;;;;33.01;26.24;100080.89;2170846;81;28653;-65
2021/07/24 10:00:30;;;;;;;9.05;7.12;;;;;;;32.66;26.91;100079.21;2171265;81;31012;-66
2021/07/24 10:03:39;;;;;;;12.37;7.80;;;;;;;32.52;27.76;100089.56;2171083;81;33133;-64
2021/07/24 10:06:50;;;;;;;9.50;8.50;;;;;;;32.42;27.96;100086.78;2171513;81;29347;-64
2021/07/24 10:09:57;;;;;;;8.48;6.95;;;;;;;32.32;27.74;100083.69;2171518;81;27821;-65
2021/07/24 10:13:03;;;;;;;8.73;7.83;;;;;;;32.24;27.70;100083.91;2137546;81;28425;-65
2021/07/24 10:16:10;;;;;;;9.28;7.03;;;;;;;32.11;28.48;100076.02;2171737;81;30878;-64
2021/07/24 10:19:15;;;;;;;9.65;7.33;;;;;;;32.03;27.99;100079.59;2153625;80;33035;-65
2021/07/24 10:22:18;;;;;;;9.28;6.80;;;;;;;31.95;28.07;100080.16;2122367;82;29357;-66
2021/07/24 10:25:21;;;;;;;8.00;7.20;;;;;;;31.73;27.57;100077.44;2144870;82;27857;-66
2021/07/24 10:28:42;;;;;;;7.65;6.85;;;;;;;31.59;27.45;100078.00;2145471;82;28655;-68
2021/07/24 10:32:15;;;;;;;9.00;7.65;;;;;;;31.56;28.41;100082.08;2144894;82;31082;-65
2021/07/24 10:35:39;;;;;;;8.43;7.45;;;;;;;31.55;28.92;100079.51;2145287;82;33120;-64
2021/07/24 10:39:08;;;;;;;9.15;8.25;;;;;;;31.45;28.75;100079.98;2144995;82;29383;-67
2021/07/24 10:42:14;;;;;;;8.75;7.85;;;;;;;31.43;28.44;100083.53;2142225;82;27759;-67
2021/07/24 10:45:48;;;;;;;9.20;8.05;;;;;;;31.12;28.59;100077.64;2145188;82;28672;-68
2021/07/24 10:48:44;;;;;;;9.23;7.90;;;;;;;31.07;29.45;100081.58;2142401;82;31275;-68
2021/07/24 10:52:01;;;;;;;8.55;7.65;;;;;;;30.96;28.70;100070.64;2145086;82;32951;-66
2021/07/24 10:55:12;;;;;;;10.72;7.78;;;;;;;30.85;29.01;100076.33;2145073;82;29327;-65
2021/07/24 10:58:11;;;;;;;13.65;8.58;;;;;;;30.74;29.07;100077.84;2143325;82;27983;-65
2021/07/24 11:01:16;;;;;;;10.80;7.72;;;;;;;30.73;29.45;100068.36;2144701;82;28685;-64
2021/07/24 11:04:43;;;;;;;8.83;7.92;;;;;;;30.62;29.04;100068.47;2089035;82;32617;-64
2021/07/24 11:07:51;;;;;;;23.10;19.17;;;;;;;30.57;28.52;100062.75;2134716;82;32997;-64
2021/07/24 11:11:16;;;;;;;12.95;9.45;;;;;;;30.32;28.52;100061.98;2142187;82;29334;-64
2021/07/24 11:14:45;;;;;;;9.90;7.20;;;;;;;30.06;28.96;100048.48;2142248;82;27939;-67
2021/07/24 11:18:25;;;;;;;8.83;7.60;;;;;;;29.86;28.98;100047.89;2142043;82;28741;-65
2021/07/24 11:22:12;;;;;;;9.28;7.37;;;;;;;29.67;29.30;100048.17;2121616;83;31093;-67
2021/07/24 11:25:25;;;;;;;13.45;8.53;;;;;;;29.55;29.65;100045.16;2117155;83;33448;-68
2021/07/24 11:28:27;;;;;;;11.90;7.50;;;;;;;29.56;29.70;100048.25;2125289;83;29830;-68
2021/07/24 11:31:30;;;;;;;9.43;7.75;;;;;;;29.48;29.72;100043.44;2125411;83;27691;-68
2021/07/24 11:34:35;;;;;;;10.30;7.85;;;;;;;29.43;29.78;100037.17;2125296;83;28656;-67
2021/07/24 11:37:49;;;;;;;9.60;8.43;;;;;;;29.34;29.70;100040.61;2125297;83;31173;-65
2021/07/24 11:41:06;;;;;;;11.15;8.10;;;;;;;29.34;30.08;100047.51;2118712;83;33113;-72
2021/07/24 11:44:09;;;;;;;9.68;8.13;;;;;;;29.28;29.53;100053.00;2125339;83;29333;-70
2021/07/24 11:47:12;;;;;;;12.07;9.43;;;;;;;29.17;29.79;100042.86;2125370;83;27616;-66
2021/07/24 11:50:21;;;;;;;11.33;9.00;;;;;;;29.18;30.31;100044.56;2125310;83;28662;-68
2021/07/24 11:53:23;;;;;;;9.68;7.70;;;;;;;29.24;31.35;100047.02;2100799;83;30767;-68
2021/07/24 11:56:28;;;;;;;13.20;8.98;;;;;;;29.26;30.98;100042.16;2122187;83;33336;-69
2021/07/24 11:59:34;;;;;;;9.98;8.85;;;;;;;29.29;31.35;100044.50;2125329;83;29335;-67
2021/07/24 12:02:36;;;;;;;8.75;7.83;;;;;;;29.27;30.14;100039.72;2125306;83;27898;-68
2021/07/24 12:05:43;;;;;;;10.07;7.47;;;;;;;29.16;29.61;100038.94;2097893;83;28708;-63
2021/07/24 12:08:53;;;;;;;12.85;8.33;;;;;;;29.05;29.68;100042.58;2125036;83;31118;-65
2021/07/24 12:12:02;;;;;;;8.25;7.28;;;;;;;28.92;29.52;100033.73;2120951;83;33063;-66
2021/07/24 12:15:11;;;;;;;8.60;7.72;;;;;;;28.84;29.38;100031.13;2121281;83;29386;-65
2021/07/24 12:18:22;;;;;;;8.60;7.60;;;;;;;28.82;29.21;100024.13;2121793;80;27763;-65
2021/07/24 12:21:37;;;;;;;11.22;8.60;;;;;;;28.76;29.04;100028.55;2141430;82;28672;-71
2021/07/24 12:24:40;;;;;;;8.70;7.80;;;;;;;28.72;30.44;100015.64;2074846;85;32448;-81
2021/07/24 12:27:49;;;;;;;8.73;7.83;;;;;;;28.72;29.68;100011.50;2075154;85;32977;-78
2021/07/24 12:30:51;;;;;;;8.70;7.62;;;;;;;28.70;30.11;100006.75;2075075;85;29350;-78
2021/07/24 12:33:58;;;;;;;11.33;7.85;;;;;;;28.71;30.27;100006.20;2075065;85;27671;-65
2021/07/24 12:37:06;;;;;;;9.23;7.90;;;;;;;28.73;30.06;100004.97;2071835;85;28649;-63
2021/07/24 12:40:18;;;;;;;10.10;8.35;;;;;;;28.76;29.87;100002.36;2055808;85;31097;-62
2021/07/24 12:43:22;;;;;;;10.08;8.15;;;;;;;28.74;29.63;100003.92;2048828;85;33019;-63
2021/07/24 12:46:28;;;;;;;13.32;10.72;;;;;;;28.75;29.63;100010.30;2071706;85;29339;-64
2021/07/24 12:49:43;;;;;;;12.30;9.30;;;;;;;28.77;29.95;100005.44;2071984;85;27975;-67
2021/07/24 12:52:55;;;;;;;12.80;11.45;;;;;;;28.81;30.35;100008.09;2071643;85;28663;-69
2021/07/24 12:56:03;;;;;;;10.88;8.50;;;;;;;28.85;30.62;100006.64;2123689;82;31089;-69
2021/07/24 12:59:06;;;;;;;21.57;14.87;;;;;;;28.87;30.12;99994.88;2151063;82;33066;-68
2021/07/24 13:02:12;;;;;;;9.90;8.90;;;;;;;28.90;29.91;99994.48;2146810;82;28082;-69
2021/07/24 13:05:18;;;;;;;14.43;11.48;;;;;;;29.01;30.47;100002.70;2147319;82;27771;-69
2021/07/24 13:08:20;;;;;;;18.65;14.75;;;;;;;29.13;29.93;99999.34;2151006;82;28632;-70
2021/07/24 13:11:25;;;;;;;15.18;12.75;;;;;;;29.29;30.48;100002.28;2147211;82;31007;-68
2021/07/24 13:14:31;;;;;;;13.38;9.65;;;;;;;29.41;29.96;100009.76;2151167;82;33953;-78
2021/07/24 13:17:33;;;;;;;9.65;8.65;;;;;;;29.46;29.50;99999.47;2129635;82;29385;-73
2021/07/24 13:20:39;;;;;;;11.63;9.00;;;;;;;29.49;29.52;100002.36;2164355;81;27711;-70
2021/07/24 13:23:54;;;;;;;19.55;16.93;;;;;;;29.51;29.77;100009.36;2170479;81;28887;-70
2021/07/24 13:30:22;;;;;;;17.57;13.00;;;;;;;29.38;29.77;100003.81;2170625;81;33145;-74
2021/07/24 13:33:25;;;;;;;11.28;9.78;;;;;;;29.28;29.47;99998.66;2170960;81;29338;-72
2021/07/24 13:36:30;;;;;;;11.80;9.73;;;;;;;29.16;29.70;100003.91;2123429;81;27880;-72
2021/07/24 13:39:35;;;;;;;10.25;9.10;;;;;;;29.06;29.22;100003.45;2143994;81;28658;-68
2021/07/24 13:42:38;;;;;;;13.30;8.90;;;;;;;28.95;29.55;100000.23;2170972;81;32124;-74
2021/07/24 13:45:43;;;;;;;11.50;9.15;;;;;;;28.93;29.51;99997.34;2170625;81;32966;-73
2021/07/24 13:48:46;;;;;;;10.40;9.35;;;;;;;28.89;30.23;99996.91;2170928;81;29340;-74
2021/07/24 13:51:48;;;;;;;13.35;10.55;;;;;;;28.91;30.71;99993.93;2171093;81;27688;-74
2021/07/24 13:54:50;;;;;;;10.38;9.28;;;;;;;28.95;30.69;99990.59;2170870;81;28631;-70
2021/07/24 13:58:00;;;;;;;10.93;8.45;;;;;;;29.02;30.67;100001.64;2167293;81;31119;-67
2021/07/24 14:01:08;;;;;;;9.78;8.08;;;;;;;28.99;29.46;100002.05;2167126;81;32977;-66
2021/07/24 14:04:15;;;;;;;14.25;8.90;;;;;;;28.97;29.93;99995.88;2168364;81;27874;-66
2021/07/24 14:07:22;;;;;;;9.90;8.48;;;;;;;29.00;30.22;99994.61;2141803;82;27933;-67
2021/07/24 14:10:27;;;;;;;12.43;10.38;;;;;;;28.96;30.10;99996.94;2129376;83;28712;-70
2021/07/24 14:13:34;;;;;;;10.28;9.20;;;;;;;28.92;29.98;99993.75;2118757;82;31010;-68
2021/07/24 14:16:39;;;;;;;11.40;9.63;;;;;;;28.90;29.73;99998.61;2133022;83;33023;-72